Rosaria Lauro — IXXO — position and weather

sailwx.info

Track history (hours):
 
Tides and Currents Weather Stations Pressure Air Temp Water Temp Dewpoint Dewpoint Depression Visibility Wind Speed Wind Dir Waves Ship Positions

Rosaria Lauro

Last reported at 2015-Mar-26 14:33 UTC. Time now 2015-Mar-27 03:34 UTC.
Position N 40°45' E 013°56'.

Length 40 m; draft 1.1 m.

Type: Passenger vessel. MMSI: 247055900.

Date/timePositionNaut miles runAvg speedWind from/ knotsBaromVisibWave heightAir tempDewpointWater temp
2015-Mar-26 14:33N 40°45' E 013°56'0 0.0
2015-Mar-26 13:33N 40°45' E 013°56'0 0.0
2015-Mar-26 12:33N 40°45' E 013°56'0 0.0
2015-Mar-26 11:33N 40°45' E 013°56'0 0.1
2015-Mar-26 10:33N 40°45' E 013°56'1 1.0
2015-Mar-26 09:34N 40°45' E 013°58'6 2.0
2015-Mar-26 06:33N 40°46' E 014°06'7 6.7
2015-Mar-26 05:33N 40°45' E 013°57'1 0.0
2015-Mar-25 15:34N 40°45' E 013°56'1211.7
2015-Mar-25 14:32N 40°47' E 014°12'3 0.5
2015-Mar-25 08:24N 40°50' E 014°13'1 0.4
2015-Mar-25 07:11N 40°49' E 014°14'813.0
2015-Mar-25 06:33N 40°46' E 014°04'6 5.9
2015-Mar-25 05:34N 40°45' E 013°56'0 0.0
2015-Mar-24 17:30N 40°45' E 013°56'1616.5
2015-Mar-24 16:32N 40°49' E 014°17'1212.1
2015-Mar-24 15:33N 40°46' E 014°01'4 4.3
2015-Mar-24 14:33N 40°45' E 013°56'16 5.3
2015-Mar-24 11:30N 40°50' E 014°16'1616.7
2015-Mar-24 10:33N 40°45' E 013°57'0 0.4
2015-Mar-24 09:33N 40°45' E 013°56'1612.2
2015-Mar-24 08:13N 40°50' E 014°17'2 2.6
2015-Mar-24 07:24N 40°49' E 014°14'6 7.3
2015-Mar-24 06:33N 40°46' E 014°07'1211.8
2015-Mar-24 05:33N 40°44' E 013°52'1 0.1
2015-Mar-23 17:34N 40°45' E 013°52'1817.8
2015-Mar-23 16:33N 40°48' E 014°15'7 7.0
2015-Mar-23 15:34N 40°46' E 014°06'7 7.2
2015-Mar-23 14:33N 40°45' E 013°56'16 5.2
2015-Mar-23 11:28N 40°50' E 014°17'1617.7
2015-Mar-23 10:34N 40°45' E 013°56'1 0.5
2015-Mar-23 09:34N 40°45' E 013°56'1612.8
2015-Mar-23 08:17N 40°50' E 014°16'2 1.9
2015-Mar-23 07:21N 40°49' E 014°14'6 7.6
2015-Mar-23 06:33N 40°46' E 014°07'1212.0
2015-Mar-23 05:33N 40°44' E 013°52'0 0.0
2015-Mar-22 17:33N 40°45' E 013°52'1818.3
2015-Mar-22 16:33N 40°49' E 014°15'8 8.5
2015-Mar-22 15:33N 40°46' E 014°05'8 7.9
2015-Mar-22 14:33N 40°46' E 013°54'1713.0
2015-Mar-22 13:15N 40°50' E 014°16'0 0.3
2015-Mar-22 11:31N 40°50' E 014°17'1616.6
2015-Mar-22 10:34N 40°45' E 013°57'0 0.3
2015-Mar-22 09:34N 40°45' E 013°57'1615.5
2015-Mar-22 08:33N 40°50' E 014°16'1616.3
2015-Mar-22 07:33N 40°45' E 013°56'0 0.0
2015-Mar-21 20:11N 40°45' E 013°56'1522.7
2015-Mar-21 19:32N 40°48' E 014°15'5 5.3
2015-Mar-21 18:34N 40°46' E 014°09'1313.4
2015-Mar-21 17:33N 40°45' E 013°52'1818.1
2015-Mar-21 16:32N 40°49' E 014°16'8 8.5
2015-Mar-21 15:33N 40°46' E 014°05'7 6.6
2015-Mar-21 14:33N 40°45' E 013°56'1610.8
2015-Mar-21 13:04N 40°50' E 014°16'1122.5
2015-Mar-21 12:33N 40°46' E 014°02'8 8.1
2015-Mar-21 11:33N 40°44' E 013°52'4 4.5
2015-Mar-21 10:34N 40°45' E 013°57'1513.5
2015-Mar-21 09:26N 40°50' E 014°16'1618.2
2015-Mar-21 08:33N 40°45' E 013°56'0 0.1
2015-Mar-21 07:33N 40°45' E 013°56'4 0.3
2015-Mar-20 17:33N 40°44' E 013°52'2018.3
2015-Mar-20 16:29N 40°49' E 014°17'1111.9
2015-Mar-20 15:34N 40°46' E 014°03'5 5.1
2015-Mar-20 14:34N 40°45' E 013°56'1612.4
2015-Mar-20 13:16N 40°50' E 014°16'2 1.6
2015-Mar-20 12:06N 40°49' E 014°14'2 3.0
2015-Mar-20 11:30N 40°50' E 014°16'1616.8
2015-Mar-20 10:34N 40°45' E 013°57'0 0.2
2015-Mar-20 09:33N 40°45' E 013°56'1613.0
2015-Mar-20 08:21N 40°50' E 014°16'2 2.0
2015-Mar-20 07:27N 40°50' E 014°14'6 6.4
2015-Mar-20 06:34N 40°46' E 014°07'1211.8
2015-Mar-20 05:32N 40°44' E 013°52'4 0.4
2015-Mar-19 20:06N 40°45' E 013°56'1524.7
2015-Mar-19 19:30N 40°48' E 014°15'6 6.0
2015-Mar-19 18:34N 40°47' E 014°08'2 1.9
2015-Mar-19 17:34N 40°46' E 014°06'7 6.8
2015-Mar-19 16:33N 40°49' E 014°14'1414.0
2015-Mar-19 15:33N 40°45' E 013°56'14 6.8
2015-Mar-19 13:33N 40°49' E 014°13'9 9.3
2015-Mar-19 12:34N 40°47' E 014°02'1211.2
2015-Mar-19 11:29N 40°50' E 014°17'1617.5
2015-Mar-19 10:34N 40°45' E 013°57'0 0.4
2015-Mar-19 09:33N 40°45' E 013°56'14 6.5
2015-Mar-19 07:24N 40°50' E 014°14'6 7.3
2015-Mar-19 06:34N 40°46' E 014°07'1211.3
2015-Mar-19 05:32N 40°44' E 013°52'0 0.0
2015-Mar-18 17:33N 40°44' E 013°52'1817.8
2015-Mar-18 16:33N 40°48' E 014°15'8 7.9
2015-Mar-18 15:33N 40°46' E 014°05'6 6.4
2015-Mar-18 14:33N 40°45' E 013°57'16 5.1
2015-Mar-18 11:32N 40°50' E 014°16'1616.0
2015-Mar-18 10:34N 40°45' E 013°56'1 0.6
2015-Mar-18 09:33N 40°45' E 013°56'1614.1
2015-Mar-18 08:26N 40°50' E 014°16'2 1.6
2015-Mar-18 07:22N 40°50' E 014°14'6 7.4
2015-Mar-18 06:33N 40°46' E 014°07'1212.0
2015-Mar-18 05:34N 40°44' E 013°52'4 0.2
2015-Mar-17 12:20N 40°45' E 013°56'0 0.0
2015-Mar-17 11:08N 40°45' E 013°56'0 0.0
2015-Mar-17 10:33N 40°45' E 013°56'0 0.0
2015-Mar-17 09:34N 40°45' E 013°56'0 0.0
2015-Mar-17 08:34N 40°45' E 013°56'0 0.0
2015-Mar-17 07:33N 40°45' E 013°56'0 0.0
2015-Mar-17 06:33N 40°45' E 013°56'0 0.0
2015-Mar-17 05:33N 40°45' E 013°56'0 0.0
2015-Mar-16 17:33N 40°45' E 013°56'1514.6
2015-Mar-16 16:33N 40°48' E 014°15'8 8.4
2015-Mar-16 15:34N 40°46' E 014°05'6 6.3
2015-Mar-16 14:33N 40°45' E 013°56'  
Track history (hours):
 
Tides and Currents Weather Stations Pressure Air Temp Water Temp Dewpoint Dewpoint Depression Visibility Wind Speed Wind Dir Waves Ship Positions

Rosaria Lauro

Last reported at 2015-Mar-26 14:33 UTC. Time now 2015-Mar-27 03:34 UTC.
Position N 40°45' E 013°56'.

Length 40 m; draft 1.1 m.

Type: Passenger vessel. MMSI: 247055900.

Date/timePositionNaut miles runAvg speedWind from/ knotsBaromVisibWave heightAir tempDewpointWater temp
2015-Mar-26 14:33N 40°45' E 013°56'0 0.0
2015-Mar-26 13:33N 40°45' E 013°56'0 0.0
2015-Mar-26 12:33N 40°45' E 013°56'0 0.0
2015-Mar-26 11:33N 40°45' E 013°56'0 0.1
2015-Mar-26 10:33N 40°45' E 013°56'1 1.0
2015-Mar-26 09:34N 40°45' E 013°58'6 2.0
2015-Mar-26 06:33N 40°46' E 014°06'7 6.7
2015-Mar-26 05:33N 40°45' E 013°57'1 0.0
2015-Mar-25 15:34N 40°45' E 013°56'1211.7
2015-Mar-25 14:32N 40°47' E 014°12'3 0.5
2015-Mar-25 08:24N 40°50' E 014°13'1 0.4
2015-Mar-25 07:11N 40°49' E 014°14'813.0
2015-Mar-25 06:33N 40°46' E 014°04'6 5.9
2015-Mar-25 05:34N 40°45' E 013°56'0 0.0
2015-Mar-24 17:30N 40°45' E 013°56'1616.5
2015-Mar-24 16:32N 40°49' E 014°17'1212.1
2015-Mar-24 15:33N 40°46' E 014°01'4 4.3
2015-Mar-24 14:33N 40°45' E 013°56'16 5.3
2015-Mar-24 11:30N 40°50' E 014°16'1616.7
2015-Mar-24 10:33N 40°45' E 013°57'0 0.4
2015-Mar-24 09:33N 40°45' E 013°56'1612.2
2015-Mar-24 08:13N 40°50' E 014°17'2 2.6
2015-Mar-24 07:24N 40°49' E 014°14'6 7.3
2015-Mar-24 06:33N 40°46' E 014°07'1211.8
2015-Mar-24 05:33N 40°44' E 013°52'1 0.1
2015-Mar-23 17:34N 40°45' E 013°52'1817.8
2015-Mar-23 16:33N 40°48' E 014°15'7 7.0
2015-Mar-23 15:34N 40°46' E 014°06'7 7.2
2015-Mar-23 14:33N 40°45' E 013°56'16 5.2
2015-Mar-23 11:28N 40°50' E 014°17'1617.7
2015-Mar-23 10:34N 40°45' E 013°56'1 0.5
2015-Mar-23 09:34N 40°45' E 013°56'1612.8
2015-Mar-23 08:17N 40°50' E 014°16'2 1.9
2015-Mar-23 07:21N 40°49' E 014°14'6 7.6
2015-Mar-23 06:33N 40°46' E 014°07'1212.0
2015-Mar-23 05:33N 40°44' E 013°52'0 0.0
2015-Mar-22 17:33N 40°45' E 013°52'1818.3
2015-Mar-22 16:33N 40°49' E 014°15'8 8.5
2015-Mar-22 15:33N 40°46' E 014°05'8 7.9
2015-Mar-22 14:33N 40°46' E 013°54'1713.0
2015-Mar-22 13:15N 40°50' E 014°16'0 0.3
2015-Mar-22 11:31N 40°50' E 014°17'1616.6
2015-Mar-22 10:34N 40°45' E 013°57'0 0.3
2015-Mar-22 09:34N 40°45' E 013°57'1615.5
2015-Mar-22 08:33N 40°50' E 014°16'1616.3
2015-Mar-22 07:33N 40°45' E 013°56'0 0.0
2015-Mar-21 20:11N 40°45' E 013°56'1522.7
2015-Mar-21 19:32N 40°48' E 014°15'5 5.3
2015-Mar-21 18:34N 40°46' E 014°09'1313.4
2015-Mar-21 17:33N 40°45' E 013°52'1818.1
2015-Mar-21 16:32N 40°49' E 014°16'8 8.5
2015-Mar-21 15:33N 40°46' E 014°05'7 6.6
2015-Mar-21 14:33N 40°45' E 013°56'1610.8
2015-Mar-21 13:04N 40°50' E 014°16'1122.5
2015-Mar-21 12:33N 40°46' E 014°02'8 8.1
2015-Mar-21 11:33N 40°44' E 013°52'4 4.5
2015-Mar-21 10:34N 40°45' E 013°57'1513.5
2015-Mar-21 09:26N 40°50' E 014°16'1618.2
2015-Mar-21 08:33N 40°45' E 013°56'0 0.1
2015-Mar-21 07:33N 40°45' E 013°56'4 0.3
2015-Mar-20 17:33N 40°44' E 013°52'2018.3
2015-Mar-20 16:29N 40°49' E 014°17'1111.9
2015-Mar-20 15:34N 40°46' E 014°03'5 5.1
2015-Mar-20 14:34N 40°45' E 013°56'1612.4
2015-Mar-20 13:16N 40°50' E 014°16'2 1.6
2015-Mar-20 12:06N 40°49' E 014°14'2 3.0
2015-Mar-20 11:30N 40°50' E 014°16'1616.8
2015-Mar-20 10:34N 40°45' E 013°57'0 0.2
2015-Mar-20 09:33N 40°45' E 013°56'1613.0
2015-Mar-20 08:21N 40°50' E 014°16'2 2.0
2015-Mar-20 07:27N 40°50' E 014°14'6 6.4
2015-Mar-20 06:34N 40°46' E 014°07'1211.8
2015-Mar-20 05:32N 40°44' E 013°52'4 0.4
2015-Mar-19 20:06N 40°45' E 013°56'1524.7
2015-Mar-19 19:30N 40°48' E 014°15'6 6.0
2015-Mar-19 18:34N 40°47' E 014°08'2 1.9
2015-Mar-19 17:34N 40°46' E 014°06'7 6.8
2015-Mar-19 16:33N 40°49' E 014°14'1414.0
2015-Mar-19 15:33N 40°45' E 013°56'14 6.8
2015-Mar-19 13:33N 40°49' E 014°13'9 9.3
2015-Mar-19 12:34N 40°47' E 014°02'1211.2
2015-Mar-19 11:29N 40°50' E 014°17'1617.5
2015-Mar-19 10:34N 40°45' E 013°57'0 0.4
2015-Mar-19 09:33N 40°45' E 013°56'14 6.5
2015-Mar-19 07:24N 40°50' E 014°14'6 7.3
2015-Mar-19 06:34N 40°46' E 014°07'1211.3
2015-Mar-19 05:32N 40°44' E 013°52'0 0.0
2015-Mar-18 17:33N 40°44' E 013°52'1817.8
2015-Mar-18 16:33N 40°48' E 014°15'8 7.9
2015-Mar-18 15:33N 40°46' E 014°05'6 6.4
2015-Mar-18 14:33N 40°45' E 013°57'16 5.1
2015-Mar-18 11:32N 40°50' E 014°16'1616.0
2015-Mar-18 10:34N 40°45' E 013°56'1 0.6
2015-Mar-18 09:33N 40°45' E 013°56'1614.1
2015-Mar-18 08:26N 40°50' E 014°16'2 1.6
2015-Mar-18 07:22N 40°50' E 014°14'6 7.4
2015-Mar-18 06:33N 40°46' E 014°07'1212.0
2015-Mar-18 05:34N 40°44' E 013°52'4 0.2
2015-Mar-17 12:20N 40°45' E 013°56'0 0.0
2015-Mar-17 11:08N 40°45' E 013°56'0 0.0
2015-Mar-17 10:33N 40°45' E 013°56'0 0.0
2015-Mar-17 09:34N 40°45' E 013°56'0 0.0
2015-Mar-17 08:34N 40°45' E 013°56'0 0.0
2015-Mar-17 07:33N 40°45' E 013°56'0 0.0
2015-Mar-17 06:33N 40°45' E 013°56'0 0.0
2015-Mar-17 05:33N 40°45' E 013°56'0 0.0
2015-Mar-16 17:33N 40°45' E 013°56'1514.6
2015-Mar-16 16:33N 40°48' E 014°15'8 8.4
2015-Mar-16 15:34N 40°46' E 014°05'6 6.3
2015-Mar-16 14:33N 40°45' E 013°56'  

Dump ship's entire track history